createdAt,value
2018-09-01T00:00:41.734Z,99.90
2018-09-01T00:03:11.330Z,99.90
2018-09-01T00:05:40.742Z,99.90
2018-09-01T00:08:09.856Z,99.90
2018-09-01T00:10:38.942Z,99.90
2018-09-01T00:13:07.959Z,99.90
2018-09-01T00:15:37.130Z,99.90
2018-09-01T00:18:06.952Z,99.90
2018-09-01T00:20:36.013Z,99.90
2018-09-01T00:23:05.213Z,99.90
2018-09-01T00:25:34.388Z,99.90
2018-09-01T00:28:03.571Z,99.90
2018-09-01T00:30:32.570Z,99.90
2018-09-01T00:33:01.738Z,99.90
2018-09-01T00:35:30.716Z,99.90
2018-09-01T00:38:05.099Z,99.90
2018-09-01T00:40:34.209Z,99.90
2018-09-01T00:43:03.249Z,99.90
2018-09-01T00:45:32.557Z,99.90
2018-09-01T00:48:01.520Z,99.90
2018-09-01T00:50:31.053Z,99.90
2018-09-01T00:53:00.151Z,99.90
2018-09-01T00:55:31.943Z,99.90
2018-09-01T00:58:01.622Z,99.90
2018-09-01T01:00:30.612Z,99.90
2018-09-01T01:02:59.674Z,99.90
2018-09-01T01:05:28.897Z,99.90
2018-09-01T01:07:57.816Z,99.90
2018-09-01T01:10:26.785Z,99.90
2018-09-01T01:12:55.791Z,99.90
2018-09-01T01:15:24.977Z,99.90
2018-09-01T01:17:54.258Z,99.90
2018-09-01T01:20:23.317Z,99.90
2018-09-01T01:22:52.794Z,99.90
2018-09-01T01:25:22.112Z,99.90
2018-09-01T01:27:51.099Z,99.90
2018-09-01T01:30:20.202Z,99.90
2018-09-01T01:32:49.137Z,99.90
2018-09-01T01:35:18.156Z,99.90
2018-09-01T01:37:47.125Z,99.90
2018-09-01T01:40:16.179Z,99.90
2018-09-01T01:42:45.247Z,99.90
2018-09-01T01:45:14.365Z,99.90
2018-09-01T01:47:43.351Z,99.90
2018-09-01T01:50:12.831Z,99.90
2018-09-01T01:52:41.800Z,99.90
2018-09-01T01:55:10.710Z,99.90
2018-09-01T01:57:44.784Z,99.90
2018-09-01T02:00:14.730Z,99.90
2018-09-01T02:02:43.720Z,99.90
2018-09-01T02:05:20.610Z,99.90
2018-09-01T02:07:51.049Z,99.90
2018-09-01T02:10:22.901Z,99.90
2018-09-01T02:12:57.332Z,99.90
2018-09-01T02:15:27.780Z,99.90
2018-09-01T02:17:58.632Z,99.90
2018-09-01T02:20:29.164Z,99.90
2018-09-01T02:22:59.265Z,99.90
2018-09-01T02:25:28.281Z,99.90
2018-09-01T02:27:57.340Z,99.90
2018-09-01T02:30:26.791Z,99.90
2018-09-01T02:32:55.893Z,99.90
2018-09-01T02:35:24.948Z,99.90
2018-09-01T02:37:53.879Z,99.90
2018-09-01T02:40:23.073Z,99.90
2018-09-01T02:42:52.248Z,99.90
2018-09-01T02:45:21.354Z,99.90
2018-09-01T02:47:50.250Z,99.90
2018-09-01T02:50:19.276Z,99.90
2018-09-01T02:52:48.234Z,99.90
2018-09-01T02:55:17.136Z,99.90
2018-09-01T02:57:46.172Z,99.90
2018-09-01T03:00:20.383Z,99.90
2018-09-01T03:02:49.471Z,99.90
2018-09-01T03:05:18.373Z,99.90
2018-09-01T03:07:47.257Z,99.90
2018-09-01T03:12:50.798Z,99.90
2018-09-01T03:15:19.687Z,99.90
2018-09-01T03:17:48.608Z,99.90
2018-09-01T03:20:17.564Z,99.90
2018-09-01T03:22:46.449Z,99.90
2018-09-01T03:25:15.381Z,99.90
2018-09-01T03:27:44.336Z,99.90
2018-09-01T03:30:13.228Z,99.90
2018-09-01T03:32:42.092Z,99.90
2018-09-01T03:35:11.042Z,99.90
2018-09-01T03:37:39.949Z,99.90
2018-09-01T03:40:08.920Z,99.90
2018-09-01T03:42:37.910Z,99.90
2018-09-01T03:45:07.163Z,99.90
2018-09-01T03:47:36.465Z,99.90
2018-09-01T03:50:05.696Z,99.90
2018-09-01T03:52:34.696Z,99.90
2018-09-01T03:55:03.653Z,99.90
2018-09-01T03:57:32.632Z,99.90
2018-09-01T04:00:01.511Z,99.90
2018-09-01T04:02:30.448Z,99.90
2018-09-01T04:04:59.329Z,99.90
2018-09-01T04:07:28.751Z,99.90
2018-09-01T04:09:57.744Z,99.90
2018-09-01T04:12:26.643Z,99.90
2018-09-01T04:14:55.602Z,99.90
2018-09-01T04:17:24.579Z,99.90
2018-09-01T04:19:53.479Z,99.90
2018-09-01T04:22:22.404Z,99.90
2018-09-01T04:24:51.329Z,99.90
2018-09-01T04:27:21.252Z,99.90
2018-09-01T04:29:50.209Z,99.90
2018-09-01T04:32:19.129Z,99.90
2018-09-01T04:34:48.045Z,99.90
2018-09-01T04:37:22.208Z,99.90
2018-09-01T04:39:51.064Z,99.90
2018-09-01T04:42:20.035Z,99.90
2018-09-01T04:44:48.900Z,99.90
2018-09-01T04:47:21.076Z,99.90
2018-09-01T04:49:50.119Z,99.90
2018-09-01T04:52:19.044Z,99.90
2018-09-01T04:54:47.996Z,99.90
2018-09-01T04:57:19.594Z,99.90
2018-09-01T04:59:48.564Z,99.90
2018-09-01T05:02:17.443Z,99.90
2018-09-01T05:04:46.360Z,99.90
2018-09-01T05:07:15.728Z,99.90
2018-09-01T05:09:44.633Z,99.90
2018-09-01T05:12:13.583Z,99.90
2018-09-01T05:14:42.444Z,99.90
2018-09-01T05:17:11.362Z,99.90
2018-09-01T05:19:40.246Z,99.90
2018-09-01T05:22:09.158Z,99.90
2018-09-01T05:24:38.038Z,99.90
2018-09-01T05:27:06.904Z,99.90
2018-09-01T05:29:35.814Z,99.90
2018-09-01T05:32:05.085Z,99.90
2018-09-01T05:34:34.028Z,99.90
2018-09-01T05:37:03.148Z,99.90
2018-09-01T05:39:32.122Z,99.90
2018-09-01T05:42:01.024Z,99.90
2018-09-01T05:44:30.083Z,99.90
2018-09-01T05:46:59.001Z,99.90
2018-09-01T05:49:27.919Z,99.90
2018-09-01T05:51:56.850Z,99.90
2018-09-01T05:54:25.767Z,99.90
2018-09-01T05:56:54.653Z,99.90
2018-09-01T05:59:24.048Z,99.90
2018-09-01T06:01:52.932Z,99.90
2018-09-01T06:04:21.813Z,99.90
2018-09-01T06:06:50.820Z,99.90
2018-09-01T06:09:19.701Z,99.90
2018-09-01T06:11:48.641Z,99.90
2018-09-01T06:14:17.518Z,99.90
2018-09-01T06:16:46.804Z,99.90
2018-09-01T06:19:15.765Z,99.90
2018-09-01T06:21:44.707Z,99.90
2018-09-01T06:24:13.713Z,99.90
2018-09-01T06:26:42.712Z,99.90
2018-09-01T06:29:13.556Z,99.90
2018-09-01T06:31:46.384Z,99.90
2018-09-01T06:34:15.357Z,99.90
2018-09-01T06:36:44.320Z,99.90
2018-09-01T06:39:13.213Z,99.90
2018-09-01T06:41:42.651Z,99.90
2018-09-01T06:44:11.640Z,99.90
2018-09-01T06:46:40.598Z,99.90
2018-09-01T06:49:09.556Z,99.90
2018-09-01T06:51:38.683Z,99.90
2018-09-01T06:54:07.584Z,99.90
2018-09-01T06:56:36.569Z,99.90
2018-09-01T06:59:05.577Z,99.90
2018-09-01T07:01:35.412Z,99.90
2018-09-01T07:04:06.915Z,99.90
2018-09-01T07:06:35.888Z,99.90
2018-09-01T07:09:05.889Z,99.90
2018-09-01T07:11:34.789Z,99.90
2018-09-01T07:14:03.784Z,99.90
2018-09-01T07:16:32.657Z,99.90
2018-09-01T07:19:01.607Z,99.90
2018-09-01T07:21:30.573Z,99.90
2018-09-01T07:23:59.516Z,99.90
2018-09-01T07:26:34.663Z,99.90
2018-09-01T07:29:03.857Z,99.90
2018-09-01T07:31:33.064Z,99.90
2018-09-01T07:34:01.660Z,99.90
2018-09-01T07:36:30.596Z,99.90
2018-09-01T07:38:59.658Z,99.90
2018-09-01T07:41:28.519Z,99.90
2018-09-01T07:43:57.485Z,99.90
2018-09-01T07:46:26.450Z,99.90
2018-09-01T07:48:55.372Z,99.90
2018-09-01T07:51:24.283Z,99.90
2018-09-01T07:53:53.178Z,99.90
2018-09-01T07:56:22.993Z,99.90
2018-09-01T07:58:51.944Z,99.90
2018-09-01T08:01:20.874Z,99.90
2018-09-01T08:03:49.715Z,99.90
2018-09-01T08:06:18.606Z,99.90
2018-09-01T08:08:47.525Z,99.90
2018-09-01T08:11:16.487Z,99.90
2018-09-01T08:13:45.455Z,99.90
2018-09-01T08:16:14.391Z,99.90
2018-09-01T08:18:43.355Z,99.90
2018-09-01T08:21:12.322Z,99.90
2018-09-01T08:23:41.309Z,99.90
2018-09-01T08:26:10.333Z,99.90
2018-09-01T08:28:39.152Z,99.90
2018-09-01T08:31:08.265Z,99.90
2018-09-01T08:33:37.282Z,99.90
2018-09-01T08:36:06.382Z,99.90
2018-09-01T08:38:35.285Z,99.90
2018-09-01T08:41:04.221Z,99.90
2018-09-01T08:43:33.146Z,99.90
2018-09-01T08:46:02.074Z,99.90
2018-09-01T08:48:31.014Z,99.90
2018-09-01T08:50:59.929Z,99.90
2018-09-01T08:53:28.816Z,99.90
2018-09-01T08:55:57.747Z,99.90
2018-09-01T08:58:26.680Z,99.90
2018-09-01T09:00:55.555Z,99.90
2018-09-01T09:03:24.466Z,99.90
2018-09-01T09:08:27.392Z,99.90
2018-09-01T09:10:56.337Z,99.90
2018-09-01T09:13:25.259Z,99.90
2018-09-01T09:15:54.210Z,99.90
2018-09-01T09:18:23.164Z,99.90
2018-09-01T09:20:52.061Z,99.90
2018-09-01T09:23:20.968Z,99.90
2018-09-01T09:25:49.836Z,99.90
2018-09-01T09:28:18.754Z,99.90
2018-09-01T09:30:47.743Z,99.90
2018-09-01T09:33:16.831Z,98.70
2018-09-01T09:35:45.756Z,97.70
2018-09-01T09:38:14.805Z,97.30
2018-09-01T09:40:44.004Z,96.60
2018-09-01T09:43:13.016Z,95.40
2018-09-01T09:45:42.194Z,95.20
2018-09-01T09:48:11.141Z,93.50
2018-09-01T09:50:40.052Z,93.10
2018-09-01T09:53:09.060Z,92.60
2018-09-01T09:55:38.039Z,92.20
2018-09-01T09:58:08.230Z,91.50
2018-09-01T10:00:42.232Z,91.70
2018-09-01T10:03:11.163Z,90.00
2018-09-01T10:05:40.145Z,90.40
2018-09-01T10:08:09.166Z,90.20
2018-09-01T10:10:38.149Z,90.30
2018-09-01T10:13:07.137Z,89.50
2018-09-01T10:15:36.093Z,88.10
2018-09-01T10:18:05.667Z,84.40
2018-09-01T10:20:34.751Z,82.50
2018-09-01T10:23:03.771Z,79.10
2018-09-01T10:25:32.703Z,75.90
2018-09-01T10:28:01.593Z,77.20
2018-09-01T10:30:30.660Z,77.30
2018-09-01T10:32:59.657Z,72.20
2018-09-01T10:35:28.764Z,69.80
2018-09-01T10:37:59.883Z,71.10
2018-09-01T10:40:29.472Z,69.60
2018-09-01T10:42:58.372Z,68.00
2018-09-01T10:45:32.254Z,65.50
2018-09-01T10:48:01.884Z,65.70
2018-09-01T10:50:31.278Z,65.30
2018-09-01T10:53:00.301Z,65.20
2018-09-01T10:55:29.251Z,64.60
2018-09-01T10:57:59.765Z,60.70
2018-09-01T11:00:29.520Z,59.90
2018-09-01T11:02:58.678Z,59.60
2018-09-01T11:05:27.936Z,60.60
2018-09-01T11:08:00.873Z,60.20
2018-09-01T11:10:30.006Z,59.80
2018-09-01T11:12:59.077Z,59.10
2018-09-01T11:15:28.090Z,58.40
2018-09-01T11:18:00.517Z,57.70
2018-09-01T11:20:30.148Z,57.50
2018-09-01T11:22:59.164Z,57.90
2018-09-01T11:25:28.646Z,57.50
2018-09-01T11:27:58.546Z,57.60
2018-09-01T11:30:28.096Z,56.70
2018-09-01T11:32:57.112Z,58.40
2018-09-01T11:35:26.208Z,59.80
2018-09-01T11:37:56.229Z,58.60
2018-09-01T11:40:25.240Z,58.40
2018-09-01T11:42:54.361Z,58.10
2018-09-01T11:45:23.264Z,56.80
2018-09-01T11:47:52.216Z,57.20
2018-09-01T11:50:21.157Z,57.80
2018-09-01T11:52:50.183Z,57.30
2018-09-01T11:55:19.132Z,55.20
2018-09-01T11:57:48.456Z,53.60
2018-09-01T12:00:17.449Z,53.00
2018-09-01T12:02:48.916Z,53.60
2018-09-01T12:05:17.916Z,53.70
2018-09-01T12:07:47.837Z,53.50
2018-09-01T12:10:17.189Z,54.10
2018-09-01T12:12:46.209Z,54.20
2018-09-01T12:15:15.640Z,54.30
2018-09-01T12:17:44.640Z,53.80
2018-09-01T12:20:13.892Z,53.80
2018-09-01T12:22:42.992Z,53.40
2018-09-01T12:25:12.027Z,52.70
2018-09-01T12:27:40.954Z,51.80
2018-09-01T12:30:09.925Z,52.00
2018-09-01T12:32:38.966Z,52.90
2018-09-01T12:35:07.976Z,53.00
2018-09-01T12:37:39.912Z,51.50
2018-09-01T12:40:09.460Z,50.60
2018-09-01T12:42:38.678Z,50.30
2018-09-01T12:45:07.872Z,51.00
2018-09-01T12:47:39.305Z,51.30
2018-09-01T12:50:10.878Z,50.80
2018-09-01T12:52:40.301Z,50.20
2018-09-01T12:55:09.340Z,49.40
2018-09-01T12:57:38.342Z,49.80
2018-09-01T13:00:08.367Z,50.50
2018-09-01T13:02:38.396Z,50.10
2018-09-01T13:05:07.518Z,50.30
2018-09-01T13:07:38.615Z,49.80
2018-09-01T13:10:10.875Z,50.20
2018-09-01T13:12:40.109Z,49.70
2018-09-01T13:15:12.780Z,49.70
2018-09-01T13:17:46.830Z,49.50
2018-09-01T13:20:20.662Z,49.60
2018-09-01T13:22:49.676Z,49.90
2018-09-01T13:25:18.747Z,49.60
2018-09-01T13:27:47.732Z,49.90
2018-09-01T13:30:17.469Z,50.30
2018-09-01T13:32:46.428Z,48.80
2018-09-01T13:35:16.251Z,49.50
2018-09-01T13:37:45.518Z,49.20
2018-09-01T13:40:15.283Z,49.30
2018-09-01T13:42:44.721Z,49.50
2018-09-01T13:45:13.709Z,49.10
2018-09-01T13:47:42.895Z,48.80
2018-09-01T13:50:11.882Z,49.10
2018-09-01T13:52:40.870Z,49.30
2018-09-01T13:55:09.905Z,49.70
2018-09-01T13:57:40.497Z,49.10
2018-09-01T14:00:09.513Z,47.70
2018-09-01T14:02:38.699Z,48.00
2018-09-01T14:05:08.884Z,48.20
2018-09-01T14:07:39.169Z,47.70
2018-09-01T14:10:10.947Z,47.90
2018-09-01T14:12:41.111Z,48.00
2018-09-01T14:15:10.883Z,48.30
2018-09-01T14:17:40.085Z,48.60
2018-09-01T14:20:12.510Z,48.40
2018-09-01T14:22:43.411Z,48.40
2018-09-01T14:25:14.008Z,48.20
2018-09-01T14:27:47.688Z,47.80
2018-09-01T14:30:18.249Z,46.70
2018-09-01T14:32:47.235Z,46.30
2018-09-01T14:35:19.397Z,46.40
2018-09-01T14:37:48.801Z,46.20
2018-09-01T14:40:17.865Z,46.10
2018-09-01T14:42:47.428Z,46.40
2018-09-01T14:45:16.538Z,46.90
2018-09-01T14:47:45.852Z,46.20
2018-09-01T14:50:14.920Z,46.80
2018-09-01T14:52:43.947Z,47.50
2018-09-01T14:55:14.777Z,47.10
2018-09-01T14:57:44.266Z,47.10
2018-09-01T15:00:13.431Z,47.40
2018-09-01T15:02:43.050Z,47.70
2018-09-01T15:05:12.513Z,47.90
2018-09-01T15:07:42.129Z,47.30
2018-09-01T15:10:11.331Z,47.60
2018-09-01T15:12:40.438Z,47.10
2018-09-01T15:15:09.580Z,47.30
2018-09-01T15:17:39.970Z,47.00
2018-09-01T15:20:09.855Z,46.00
2018-09-01T15:22:39.608Z,46.50
2018-09-01T15:25:09.168Z,47.40
2018-09-01T15:27:38.904Z,48.40
2018-09-01T15:30:08.021Z,47.60
2018-09-01T15:32:37.290Z,47.60
2018-09-01T15:35:07.344Z,47.60
2018-09-01T15:37:37.309Z,47.90
2018-09-01T15:40:06.450Z,48.20
2018-09-01T15:42:35.538Z,47.70
2018-09-01T15:45:05.543Z,47.60
2018-09-01T15:47:34.909Z,47.50
2018-09-01T15:50:05.856Z,47.90
2018-09-01T15:52:35.095Z,47.40
2018-09-01T15:55:05.666Z,47.40
2018-09-01T15:57:34.812Z,47.40
2018-09-01T16:00:04.245Z,46.30
2018-09-01T16:02:33.493Z,46.40
2018-09-01T16:05:02.551Z,45.60
2018-09-01T16:07:31.635Z,45.30
2018-09-01T16:10:00.910Z,44.70
2018-09-01T16:12:29.937Z,44.30
2018-09-01T16:14:59.138Z,45.10
2018-09-01T16:17:28.300Z,45.20
2018-09-01T16:19:58.804Z,46.20
2018-09-01T16:22:28.966Z,46.90
2018-09-01T16:24:58.676Z,46.60
2018-09-01T16:27:29.376Z,46.30
2018-09-01T16:29:58.455Z,46.00
2018-09-01T16:32:28.585Z,45.60
2018-09-01T16:34:57.694Z,46.60
2018-09-01T16:37:27.326Z,46.70
2018-09-01T16:39:57.532Z,47.40
2018-09-01T16:42:32.220Z,47.40
2018-09-01T16:45:03.254Z,47.50
2018-09-01T16:47:35.536Z,48.00
2018-09-01T16:50:08.645Z,47.70
2018-09-01T16:55:19.414Z,48.40
2018-09-01T16:57:48.822Z,48.70
2018-09-01T17:00:18.104Z,48.80
2018-09-01T17:02:48.278Z,49.00
2018-09-01T17:05:18.203Z,48.90
2018-09-01T17:07:51.738Z,49.00
2018-09-01T17:10:20.928Z,49.50
2018-09-01T17:12:50.082Z,49.60
2018-09-01T17:15:19.586Z,49.90
2018-09-01T17:17:48.709Z,49.80
2018-09-01T17:20:17.772Z,50.00
2018-09-01T17:22:48.338Z,49.90
2018-09-01T17:25:17.466Z,50.20
2018-09-01T17:27:46.484Z,51.30
2018-09-01T17:30:20.818Z,50.50
2018-09-01T17:32:49.975Z,51.00
2018-09-01T17:35:19.063Z,51.60
2018-09-01T17:37:48.223Z,52.10
2018-09-01T17:40:17.226Z,52.00
2018-09-01T17:42:46.336Z,52.00
2018-09-01T17:45:15.388Z,52.60
2018-09-01T17:47:44.444Z,52.90
2018-09-01T17:50:13.479Z,52.80
2018-09-01T17:52:43.483Z,53.30
2018-09-01T17:55:12.737Z,53.90
2018-09-01T17:57:42.378Z,53.60
2018-09-01T18:00:11.650Z,54.20
2018-09-01T18:02:41.149Z,54.20
2018-09-01T18:05:10.395Z,54.10
2018-09-01T18:07:39.501Z,54.40
2018-09-01T18:10:08.549Z,55.00
2018-09-01T18:12:38.280Z,55.10
2018-09-01T18:15:07.368Z,55.50
2018-09-01T18:17:36.700Z,55.90
2018-09-01T18:20:06.215Z,56.30
2018-09-01T18:22:35.584Z,56.60
2018-09-01T18:25:04.640Z,57.70
2018-09-01T18:27:34.092Z,57.20
2018-09-01T18:30:03.352Z,57.40
2018-09-01T18:32:33.181Z,57.70
2018-09-01T18:35:02.240Z,57.60
2018-09-01T18:37:31.564Z,57.70
2018-09-01T18:40:00.783Z,58.10
2018-09-01T18:42:29.888Z,58.20
2018-09-01T18:44:59.396Z,58.60
2018-09-01T18:47:28.602Z,58.90
2018-09-01T18:49:57.753Z,58.80
2018-09-01T18:52:26.999Z,59.30
2018-09-01T18:54:56.774Z,59.30
2018-09-01T18:57:26.336Z,59.50
2018-09-01T18:59:55.867Z,59.70
2018-09-01T19:02:25.593Z,59.60
2018-09-01T19:04:55.042Z,59.90
2018-09-01T19:07:24.078Z,60.30
2018-09-01T19:09:53.959Z,60.40
2018-09-01T19:12:23.022Z,60.70
2018-09-01T19:14:52.364Z,61.00
2018-09-01T19:17:21.795Z,61.40
2018-09-01T19:19:51.690Z,61.70
2018-09-01T19:22:21.229Z,62.20
2018-09-01T19:24:51.646Z,62.60
2018-09-01T19:27:21.848Z,62.90
2018-09-01T19:29:50.946Z,63.10
2018-09-01T19:32:19.962Z,63.30
2018-09-01T19:34:49.737Z,63.70
2018-09-01T19:37:18.861Z,63.80
2018-09-01T19:39:47.931Z,64.10
2018-09-01T19:42:16.947Z,64.10
2018-09-01T19:44:46.018Z,64.30
2018-09-01T19:47:15.257Z,64.50
2018-09-01T19:49:44.717Z,64.60
2018-09-01T19:52:13.761Z,64.90
2018-09-01T19:54:43.772Z,65.20
2018-09-01T19:57:13.737Z,65.30
2018-09-01T19:59:43.176Z,65.70
2018-09-01T20:02:12.384Z,66.20
2018-09-01T20:04:41.858Z,66.80
2018-09-01T20:07:12.630Z,67.50
2018-09-01T20:09:41.604Z,68.50
2018-09-01T20:12:10.747Z,69.30
2018-09-01T20:14:39.968Z,70.30
2018-09-01T20:17:12.977Z,71.40
2018-09-01T20:19:41.902Z,72.40
2018-09-01T20:22:10.941Z,72.90
2018-09-01T20:24:40.284Z,73.60
2018-09-01T20:27:09.370Z,74.40
2018-09-01T20:29:38.476Z,75.30
2018-09-01T20:32:07.613Z,76.40
2018-09-01T20:34:40.740Z,77.10
2018-09-01T20:37:10.271Z,77.10
2018-09-01T20:39:39.343Z,77.30
2018-09-01T20:42:08.421Z,77.50
2018-09-01T20:44:37.457Z,78.10
2018-09-01T20:47:07.426Z,78.60
2018-09-01T20:49:36.765Z,78.80
2018-09-01T20:52:05.901Z,78.90
2018-09-01T20:54:34.883Z,78.40
2018-09-01T20:57:04.744Z,78.40
2018-09-01T20:59:34.419Z,78.50
2018-09-01T21:02:04.775Z,78.10
2018-09-01T21:04:35.238Z,77.40
2018-09-01T21:07:04.821Z,77.10
2018-09-01T21:09:33.866Z,77.40
2018-09-01T21:12:03.425Z,76.80
2018-09-01T21:14:32.661Z,77.00
2018-09-01T21:17:02.403Z,77.20
2018-09-01T21:19:31.600Z,76.90
2018-09-01T21:22:00.957Z,76.60
2018-09-01T21:24:30.598Z,76.90
2018-09-01T21:26:59.799Z,77.40
2018-09-01T21:29:29.260Z,77.10
2018-09-01T21:31:58.606Z,77.20
2018-09-01T21:34:29.030Z,77.00
2018-09-01T21:36:59.124Z,76.90
2018-09-01T21:39:29.877Z,77.50
2018-09-01T21:41:59.313Z,77.40
2018-09-01T21:44:30.364Z,77.90
2018-09-01T21:46:59.586Z,77.90
2018-09-01T21:49:29.414Z,77.90
2018-09-01T21:51:59.201Z,77.80
2018-09-01T21:54:29.777Z,77.90
2018-09-01T21:57:00.696Z,77.80
2018-09-01T21:59:32.486Z,77.60
2018-09-01T22:02:07.338Z,77.20
2018-09-01T22:04:41.728Z,76.50
2018-09-01T22:07:10.852Z,76.70
2018-09-01T22:09:39.908Z,76.40
2018-09-01T22:12:10.115Z,76.60
2018-09-01T22:14:40.163Z,75.70
2018-09-01T22:17:10.364Z,75.30
2018-09-01T22:19:40.254Z,73.90
2018-09-01T22:22:09.991Z,73.10
2018-09-01T22:24:39.116Z,73.00
2018-09-01T22:27:08.464Z,72.20
2018-09-01T22:29:39.138Z,71.80
2018-09-01T22:32:08.849Z,71.80
2018-09-01T22:34:38.105Z,70.90
2018-09-01T22:37:07.148Z,71.20
2018-09-01T22:39:36.155Z,71.40
2018-09-01T22:42:05.300Z,71.60
2018-09-01T22:44:34.722Z,71.60
2018-09-01T22:47:06.477Z,71.90
2018-09-01T22:49:35.457Z,71.70
2018-09-01T22:52:04.493Z,72.10
2018-09-01T22:54:35.009Z,71.90
2018-09-01T22:57:07.075Z,71.50
2018-09-01T22:59:36.052Z,71.80
2018-09-01T23:02:05.574Z,71.80
2018-09-01T23:04:35.004Z,72.20
2018-09-01T23:07:04.041Z,72.30
2018-09-01T23:09:32.979Z,72.20
2018-09-01T23:12:03.192Z,72.60
2018-09-01T23:14:32.624Z,72.10
2018-09-01T23:17:01.737Z,72.40
2018-09-01T23:19:31.869Z,72.40
2018-09-01T23:22:00.877Z,72.90
2018-09-01T23:24:31.064Z,72.80
2018-09-01T23:27:00.644Z,72.60
2018-09-01T23:29:31.801Z,73.00
2018-09-01T23:32:00.788Z,73.00
2018-09-01T23:34:32.737Z,73.00
2018-09-01T23:37:01.673Z,73.40
2018-09-01T23:39:30.616Z,73.40
2018-09-01T23:41:59.749Z,73.90
2018-09-01T23:44:28.743Z,73.70
2018-09-01T23:46:57.801Z,73.90
2018-09-01T23:49:27.761Z,74.20
2018-09-01T23:51:57.412Z,74.40
2018-09-01T23:54:26.853Z,74.70
2018-09-01T23:56:57.144Z,75.20
2018-09-01T23:59:26.225Z,75.90
